sensor_id;sensor_type;location;lat;lon;timestamp;pressure;altitude;pressure_sealevel;temperature;humidity
35291;BME280;21411;50.024;19.220;2022-08-19T00:00:31;98367.88;;;21.99;100.00
35291;BME280;21411;50.024;19.220;2022-08-19T00:03:06;98372.21;;;21.95;100.00
35291;BME280;21411;50.024;19.220;2022-08-19T00:05:33;98376.39;;;21.92;100.00
35291;BME280;21411;50.024;19.220;2022-08-19T00:08:00;98376.52;;;21.88;100.00
35291;BME280;21411;50.024;19.220;2022-08-19T00:10:28;98375.38;;;21.84;100.00
35291;BME280;21411;50.024;19.220;2022-08-19T00:12:54;98374.14;;;21.81;100.00
35291;BME280;21411;50.024;19.220;2022-08-19T00:15:21;98370.29;;;21.77;100.00
35291;BME280;21411;50.024;19.220;2022-08-19T00:17:48;98369.71;;;21.75;100.00
35291;BME280;21411;50.024;19.220;2022-08-19T00:20:20;98367.64;;;21.72;100.00
35291;BME280;21411;50.024;19.220;2022-08-19T00:22:48;98362.88;;;21.68;100.00
35291;BME280;21411;50.024;19.220;2022-08-19T00:25:15;98359.66;;;21.65;100.00
35291;BME280;21411;50.024;19.220;2022-08-19T00:27:42;98353.77;;;21.62;100.00
35291;BME280;21411;50.024;19.220;2022-08-19T00:30:09;98349.00;;;21.58;100.00
35291;BME280;21411;50.024;19.220;2022-08-19T00:32:37;98345.84;;;21.54;100.00
35291;BME280;21411;50.024;19.220;2022-08-19T00:35:04;98345.80;;;21.52;100.00
35291;BME280;21411;50.024;19.220;2022-08-19T00:37:31;98349.30;;;21.48;100.00
35291;BME280;21411;50.024;19.220;2022-08-19T00:39:59;98348.88;;;21.47;100.00
35291;BME280;21411;50.024;19.220;2022-08-19T00:42:25;98352.50;;;21.47;100.00
35291;BME280;21411;50.024;19.220;2022-08-19T00:44:54;98350.40;;;21.43;100.00
35291;BME280;21411;50.024;19.220;2022-08-19T00:47:21;98342.63;;;21.42;100.00
35291;BME280;21411;50.024;19.220;2022-08-19T00:49:55;98341.94;;;21.40;100.00
35291;BME280;21411;50.024;19.220;2022-08-19T00:52:31;98341.38;;;21.37;100.00
35291;BME280;21411;50.024;19.220;2022-08-19T00:55:00;98339.01;;;21.36;100.00
35291;BME280;21411;50.024;19.220;2022-08-19T00:57:34;98333.81;;;21.37;100.00
35291;BME280;21411;50.024;19.220;2022-08-19T01:00:07;98332.27;;;21.36;100.00
35291;BME280;21411;50.024;19.220;2022-08-19T01:02:36;98326.56;;;21.34;100.00
35291;BME280;21411;50.024;19.220;2022-08-19T01:05:05;98320.84;;;21.31;100.00
35291;BME280;21411;50.024;19.220;2022-08-19T01:07:34;98321.69;;;21.29;100.00
35291;BME280;21411;50.024;19.220;2022-08-19T01:10:02;98322.73;;;21.27;100.00
35291;BME280;21411;50.024;19.220;2022-08-19T01:12:29;98322.10;;;21.28;100.00
35291;BME280;21411;50.024;19.220;2022-08-19T01:14:57;98322.00;;;21.27;100.00
35291;BME280;21411;50.024;19.220;2022-08-19T01:17:25;98321.54;;;21.24;100.00
35291;BME280;21411;50.024;19.220;2022-08-19T01:19:51;98322.17;;;21.21;100.00
35291;BME280;21411;50.024;19.220;2022-08-19T01:22:26;98318.62;;;21.21;100.00
35291;BME280;21411;50.024;19.220;2022-08-19T01:24:53;98320.20;;;21.21;100.00
35291;BME280;21411;50.024;19.220;2022-08-19T01:27:20;98312.27;;;21.20;100.00
35291;BME280;21411;50.024;19.220;2022-08-19T01:29:47;98312.48;;;21.18;100.00
35291;BME280;21411;50.024;19.220;2022-08-19T01:32:16;98313.34;;;21.15;100.00
35291;BME280;21411;50.024;19.220;2022-08-19T01:34:43;98317.92;;;21.13;100.00
35291;BME280;21411;50.024;19.220;2022-08-19T01:37:14;98318.84;;;21.10;100.00
35291;BME280;21411;50.024;19.220;2022-08-19T01:39:41;98320.38;;;21.07;100.00
35291;BME280;21411;50.024;19.220;2022-08-19T01:42:09;98320.86;;;21.05;100.00
35291;BME280;21411;50.024;19.220;2022-08-19T01:44:39;98320.98;;;21.03;100.00
35291;BME280;21411;50.024;19.220;2022-08-19T01:47:08;98319.99;;;21.01;100.00
35291;BME280;21411;50.024;19.220;2022-08-19T01:49:36;98318.48;;;20.98;100.00
35291;BME280;21411;50.024;19.220;2022-08-19T01:52:04;98315.36;;;20.94;100.00
35291;BME280;21411;50.024;19.220;2022-08-19T01:54:31;98314.12;;;20.91;100.00
35291;BME280;21411;50.024;19.220;2022-08-19T01:57:07;98307.66;;;20.89;100.00
35291;BME280;21411;50.024;19.220;2022-08-19T01:59:35;98305.74;;;20.89;100.00
35291;BME280;21411;50.024;19.220;2022-08-19T02:02:05;98301.27;;;20.88;100.00
35291;BME280;21411;50.024;19.220;2022-08-19T02:04:33;98303.58;;;20.89;100.00
35291;BME280;21411;50.024;19.220;2022-08-19T02:07:01;98300.52;;;20.90;100.00
35291;BME280;21411;50.024;19.220;2022-08-19T02:09:28;98298.36;;;20.89;100.00
35291;BME280;21411;50.024;19.220;2022-08-19T02:11:54;98299.45;;;20.84;100.00
35291;BME280;21411;50.024;19.220;2022-08-19T02:14:21;98301.25;;;20.81;100.00
35291;BME280;21411;50.024;19.220;2022-08-19T02:16:48;98304.59;;;20.77;100.00
35291;BME280;21411;50.024;19.220;2022-08-19T02:19:14;98300.09;;;20.75;100.00
35291;BME280;21411;50.024;19.220;2022-08-19T02:21:41;98300.59;;;20.73;100.00
35291;BME280;21411;50.024;19.220;2022-08-19T02:24:09;98299.48;;;20.72;100.00
35291;BME280;21411;50.024;19.220;2022-08-19T02:26:36;98300.55;;;20.72;100.00
35291;BME280;21411;50.024;19.220;2022-08-19T02:29:03;98303.98;;;20.73;100.00
35291;BME280;21411;50.024;19.220;2022-08-19T02:31:29;98308.71;;;20.76;100.00
35291;BME280;21411;50.024;19.220;2022-08-19T02:33:56;98311.14;;;20.74;100.00
35291;BME280;21411;50.024;19.220;2022-08-19T02:36:24;98306.09;;;20.71;100.00
35291;BME280;21411;50.024;19.220;2022-08-19T02:38:51;98304.88;;;20.70;100.00
35291;BME280;21411;50.024;19.220;2022-08-19T02:41:21;98303.19;;;20.69;100.00
35291;BME280;21411;50.024;19.220;2022-08-19T02:43:48;98301.36;;;20.69;100.00
35291;BME280;21411;50.024;19.220;2022-08-19T02:46:22;98300.77;;;20.67;100.00
35291;BME280;21411;50.024;19.220;2022-08-19T02:48:50;98299.04;;;20.65;100.00
35291;BME280;21411;50.024;19.220;2022-08-19T02:51:26;98298.27;;;20.62;100.00
35291;BME280;21411;50.024;19.220;2022-08-19T02:53:53;98297.05;;;20.63;100.00
35291;BME280;21411;50.024;19.220;2022-08-19T02:56:21;98297.41;;;20.65;100.00
35291;BME280;21411;50.024;19.220;2022-08-19T02:58:48;98298.73;;;20.65;100.00
35291;BME280;21411;50.024;19.220;2022-08-19T03:01:25;98296.55;;;20.60;100.00
35291;BME280;21411;50.024;19.220;2022-08-19T03:03:53;98301.75;;;20.57;100.00
35291;BME280;21411;50.024;19.220;2022-08-19T03:06:20;98301.88;;;20.58;100.00
35291;BME280;21411;50.024;19.220;2022-08-19T03:08:48;98308.35;;;20.61;100.00
35291;BME280;21411;50.024;19.220;2022-08-19T03:11:18;98301.88;;;20.59;100.00
35291;BME280;21411;50.024;19.220;2022-08-19T03:13:45;98304.58;;;20.59;100.00
35291;BME280;21411;50.024;19.220;2022-08-19T03:16:12;98305.95;;;20.57;100.00
35291;BME280;21411;50.024;19.220;2022-08-19T03:18:39;98305.00;;;20.54;100.00
35291;BME280;21411;50.024;19.220;2022-08-19T03:21:06;98301.98;;;20.54;100.00
35291;BME280;21411;50.024;19.220;2022-08-19T03:23:33;98302.05;;;20.53;100.00
35291;BME280;21411;50.024;19.220;2022-08-19T03:26:04;98297.17;;;20.53;100.00
35291;BME280;21411;50.024;19.220;2022-08-19T03:28:31;98294.77;;;20.50;100.00
35291;BME280;21411;50.024;19.220;2022-08-19T03:31:06;98296.52;;;20.50;100.00
35291;BME280;21411;50.024;19.220;2022-08-19T03:33:34;98302.29;;;20.48;100.00
35291;BME280;21411;50.024;19.220;2022-08-19T03:36:02;98302.50;;;20.45;100.00
35291;BME280;21411;50.024;19.220;2022-08-19T03:38:29;98297.68;;;20.39;100.00
35291;BME280;21411;50.024;19.220;2022-08-19T03:40:56;98293.80;;;20.36;100.00
35291;BME280;21411;50.024;19.220;2022-08-19T03:43:23;98289.09;;;20.34;100.00
35291;BME280;21411;50.024;19.220;2022-08-19T03:46:06;98290.59;;;20.34;100.00
35291;BME280;21411;50.024;19.220;2022-08-19T03:48:36;98291.95;;;20.38;100.00
35291;BME280;21411;50.024;19.220;2022-08-19T03:51:03;98300.95;;;20.41;100.00
35291;BME280;21411;50.024;19.220;2022-08-19T03:53:30;98309.22;;;20.43;100.00
35291;BME280;21411;50.024;19.220;2022-08-19T03:55:58;98317.33;;;20.44;100.00
35291;BME280;21411;50.024;19.220;2022-08-19T03:58:27;98318.56;;;20.46;100.00
35291;BME280;21411;50.024;19.220;2022-08-19T04:00:56;98314.56;;;20.51;100.00
35291;BME280;21411;50.024;19.220;2022-08-19T04:03:24;98321.77;;;20.54;100.00
35291;BME280;21411;50.024;19.220;2022-08-19T04:05:50;98329.13;;;20.56;100.00
35291;BME280;21411;50.024;19.220;2022-08-19T04:08:17;98333.09;;;20.61;100.00
35291;BME280;21411;50.024;19.220;2022-08-19T04:10:47;98331.07;;;20.67;100.00
35291;BME280;21411;50.024;19.220;2022-08-19T04:13:16;98332.74;;;20.73;100.00
35291;BME280;21411;50.024;19.220;2022-08-19T04:15:45;98328.57;;;20.80;100.00
35291;BME280;21411;50.024;19.220;2022-08-19T04:18:13;98329.13;;;20.89;100.00
35291;BME280;21411;50.024;19.220;2022-08-19T04:20:45;98333.08;;;21.00;100.00
35291;BME280;21411;50.024;19.220;2022-08-19T04:23:13;98335.40;;;21.08;100.00
35291;BME280;21411;50.024;19.220;2022-08-19T04:25:42;98345.02;;;21.18;100.00
35291;BME280;21411;50.024;19.220;2022-08-19T04:28:11;98349.92;;;21.37;100.00
35291;BME280;21411;50.024;19.220;2022-08-19T04:30:40;98353.73;;;21.56;100.00
35291;BME280;21411;50.024;19.220;2022-08-19T04:33:09;98354.87;;;21.79;100.00
35291;BME280;21411;50.024;19.220;2022-08-19T04:35:38;98354.60;;;22.03;100.00
35291;BME280;21411;50.024;19.220;2022-08-19T04:38:06;98354.37;;;22.30;100.00
35291;BME280;21411;50.024;19.220;2022-08-19T04:40:34;98359.07;;;22.58;100.00
35291;BME280;21411;50.024;19.220;2022-08-19T04:43:24;98359.45;;;22.93;100.00
35291;BME280;21411;50.024;19.220;2022-08-19T04:45:50;98360.71;;;23.25;100.00
35291;BME280;21411;50.024;19.220;2022-08-19T04:48:18;98361.64;;;23.58;100.00
35291;BME280;21411;50.024;19.220;2022-08-19T04:50:53;98363.36;;;23.92;100.00
35291;BME280;21411;50.024;19.220;2022-08-19T04:53:31;98357.84;;;24.20;100.00
35291;BME280;21411;50.024;19.220;2022-08-19T04:55:59;98359.40;;;24.42;100.00
35291;BME280;21411;50.024;19.220;2022-08-19T04:58:29;98364.02;;;24.51;100.00
35291;BME280;21411;50.024;19.220;2022-08-19T05:00:56;98364.66;;;24.45;100.00
35291;BME280;21411;50.024;19.220;2022-08-19T05:03:26;98367.70;;;24.56;100.00
35291;BME280;21411;50.024;19.220;2022-08-19T05:05:53;98360.75;;;24.66;100.00
35291;BME280;21411;50.024;19.220;2022-08-19T05:08:20;98357.83;;;24.75;100.00
35291;BME280;21411;50.024;19.220;2022-08-19T05:10:50;98356.85;;;24.94;100.00
35291;BME280;21411;50.024;19.220;2022-08-19T05:13:19;98362.48;;;24.94;100.00
35291;BME280;21411;50.024;19.220;2022-08-19T05:15:57;98363.98;;;24.88;100.00
35291;BME280;21411;50.024;19.220;2022-08-19T05:18:24;98362.89;;;24.96;100.00
35291;BME280;21411;50.024;19.220;2022-08-19T05:21:12;98356.59;;;25.13;100.00
35291;BME280;21411;50.024;19.220;2022-08-19T05:23:58;98358.90;;;25.23;100.00
35291;BME280;21411;50.024;19.220;2022-08-19T05:26:25;98358.62;;;25.34;100.00
35291;BME280;21411;50.024;19.220;2022-08-19T05:28:52;98362.11;;;25.69;100.00
35291;BME280;21411;50.024;19.220;2022-08-19T05:31:19;98365.42;;;25.95;100.00
35291;BME280;21411;50.024;19.220;2022-08-19T05:33:46;98367.45;;;25.96;100.00
35291;BME280;21411;50.024;19.220;2022-08-19T05:36:13;98370.40;;;26.16;100.00
35291;BME280;21411;50.024;19.220;2022-08-19T05:38:40;98365.04;;;26.15;100.00
35291;BME280;21411;50.024;19.220;2022-08-19T05:41:09;98363.10;;;26.24;100.00
35291;BME280;21411;50.024;19.220;2022-08-19T05:43:36;98359.96;;;26.41;100.00
35291;BME280;21411;50.024;19.220;2022-08-19T05:46:05;98364.30;;;26.44;100.00
35291;BME280;21411;50.024;19.220;2022-08-19T05:48:33;98365.44;;;26.63;100.00
35291;BME280;21411;50.024;19.220;2022-08-19T05:51:07;98367.49;;;26.80;100.00
35291;BME280;21411;50.024;19.220;2022-08-19T05:53:35;98368.65;;;26.97;100.00
35291;BME280;21411;50.024;19.220;2022-08-19T05:56:09;98363.66;;;27.25;100.00
35291;BME280;21411;50.024;19.220;2022-08-19T05:58:37;98358.82;;;27.58;100.00
35291;BME280;21411;50.024;19.220;2022-08-19T06:01:09;98355.23;;;27.71;100.00
35291;BME280;21411;50.024;19.220;2022-08-19T06:03:36;98354.42;;;27.93;100.00
35291;BME280;21411;50.024;19.220;2022-08-19T06:06:05;98354.17;;;27.86;100.00
35291;BME280;21411;50.024;19.220;2022-08-19T06:08:32;98360.29;;;27.93;100.00
35291;BME280;21411;50.024;19.220;2022-08-19T06:13:40;98376.84;;;28.22;100.00
35291;BME280;21411;50.024;19.220;2022-08-19T06:16:07;98376.25;;;28.43;100.00
35291;BME280;21411;50.024;19.220;2022-08-19T06:18:34;98383.84;;;28.65;100.00
35291;BME280;21411;50.024;19.220;2022-08-19T06:21:00;98381.29;;;28.82;99.83
35291;BME280;21411;50.024;19.220;2022-08-19T06:23:30;98383.52;;;28.78;99.13
35291;BME280;21411;50.024;19.220;2022-08-19T06:25:57;98389.81;;;28.74;96.33
35291;BME280;21411;50.024;19.220;2022-08-19T06:28:23;98393.00;;;28.78;96.61
35291;BME280;21411;50.024;19.220;2022-08-19T06:30:50;98385.71;;;28.87;96.14
35291;BME280;21411;50.024;19.220;2022-08-19T06:33:17;98386.05;;;29.01;95.31
35291;BME280;21411;50.024;19.220;2022-08-19T06:35:43;98387.05;;;29.18;94.56
35291;BME280;21411;50.024;19.220;2022-08-19T06:38:10;98386.62;;;29.23;94.65
35291;BME280;21411;50.024;19.220;2022-08-19T06:40:37;98387.58;;;29.22;94.22
35291;BME280;21411;50.024;19.220;2022-08-19T06:43:04;98394.34;;;29.14;93.69
35291;BME280;21411;50.024;19.220;2022-08-19T06:45:30;98401.44;;;29.23;93.77
35291;BME280;21411;50.024;19.220;2022-08-19T06:47:57;98402.83;;;29.36;93.14
35291;BME280;21411;50.024;19.220;2022-08-19T06:50:24;98402.15;;;29.33;92.76
35291;BME280;21411;50.024;19.220;2022-08-19T06:52:52;98409.72;;;29.44;92.75
35291;BME280;21411;50.024;19.220;2022-08-19T06:55:18;98414.70;;;29.69;92.31
35291;BME280;21411;50.024;19.220;2022-08-19T06:57:45;98412.52;;;29.77;91.88
35291;BME280;21411;50.024;19.220;2022-08-19T07:00:12;98414.58;;;29.88;92.02
35291;BME280;21411;50.024;19.220;2022-08-19T07:02:42;98412.83;;;30.02;91.64
35291;BME280;21411;50.024;19.220;2022-08-19T07:05:09;98413.66;;;30.16;91.55
35291;BME280;21411;50.024;19.220;2022-08-19T07:07:36;98411.44;;;30.29;91.17
35291;BME280;21411;50.024;19.220;2022-08-19T07:10:03;98412.77;;;30.44;91.10
35291;BME280;21411;50.024;19.220;2022-08-19T07:12:31;98412.64;;;30.51;89.61
35291;BME280;21411;50.024;19.220;2022-08-19T07:15:04;98417.92;;;30.52;88.45
35291;BME280;21411;50.024;19.220;2022-08-19T07:17:30;98421.04;;;30.59;88.49
35291;BME280;21411;50.024;19.220;2022-08-19T07:19:58;98427.39;;;30.70;86.95
35291;BME280;21411;50.024;19.220;2022-08-19T07:22:24;98432.38;;;30.80;87.04
35291;BME280;21411;50.024;19.220;2022-08-19T07:24:51;98433.25;;;31.01;87.15
35291;BME280;21411;50.024;19.220;2022-08-19T07:27:19;98438.73;;;31.19;86.45
35291;BME280;21411;50.024;19.220;2022-08-19T07:29:45;98434.58;;;31.31;86.10
35291;BME280;21411;50.024;19.220;2022-08-19T07:32:12;98429.64;;;31.48;85.88
35291;BME280;21411;50.024;19.220;2022-08-19T07:34:38;98432.30;;;31.53;84.19
35291;BME280;21411;50.024;19.220;2022-08-19T07:37:06;98430.63;;;31.59;84.23
35291;BME280;21411;50.024;19.220;2022-08-19T07:39:35;98431.58;;;31.63;83.59
35291;BME280;21411;50.024;19.220;2022-08-19T07:42:06;98433.16;;;31.72;84.25
35291;BME280;21411;50.024;19.220;2022-08-19T07:44:34;98441.77;;;31.84;83.62
35291;BME280;21411;50.024;19.220;2022-08-19T07:47:01;98442.13;;;31.92;82.39
35291;BME280;21411;50.024;19.220;2022-08-19T07:49:28;98440.53;;;31.99;82.56
35291;BME280;21411;50.024;19.220;2022-08-19T07:51:59;98441.97;;;32.12;80.36
35291;BME280;21411;50.024;19.220;2022-08-19T07:54:30;98440.13;;;32.15;79.58
35291;BME280;21411;50.024;19.220;2022-08-19T07:56:57;98447.97;;;32.15;79.01
35291;BME280;21411;50.024;19.220;2022-08-19T07:59:24;98449.44;;;32.27;79.50
35291;BME280;21411;50.024;19.220;2022-08-19T08:01:51;98452.49;;;32.30;78.51
35291;BME280;21411;50.024;19.220;2022-08-19T08:04:18;98451.31;;;32.27;78.38
35291;BME280;21411;50.024;19.220;2022-08-19T08:07:05;98457.60;;;32.28;78.86
35291;BME280;21411;50.024;19.220;2022-08-19T08:09:51;98461.98;;;32.34;78.74
35291;BME280;21411;50.024;19.220;2022-08-19T08:12:25;98462.86;;;32.34;77.48
35291;BME280;21411;50.024;19.220;2022-08-19T08:14:57;98462.00;;;32.23;77.66
35291;BME280;21411;50.024;19.220;2022-08-19T08:17:26;98458.52;;;32.27;78.47
35291;BME280;21411;50.024;19.220;2022-08-19T08:19:54;98461.61;;;32.40;78.25
35291;BME280;21411;50.024;19.220;2022-08-19T08:22:21;98469.10;;;32.43;76.99
35291;BME280;21411;50.024;19.220;2022-08-19T08:25:10;98461.04;;;32.50;76.65
35291;BME280;21411;50.024;19.220;2022-08-19T08:27:40;98457.66;;;32.63;75.22
35291;BME280;21411;50.024;19.220;2022-08-19T08:30:09;98457.07;;;32.76;75.38
35291;BME280;21411;50.024;19.220;2022-08-19T08:32:37;98451.62;;;32.82;75.32
35291;BME280;21411;50.024;19.220;2022-08-19T08:35:07;98450.60;;;33.07;75.56
35291;BME280;21411;50.024;19.220;2022-08-19T08:37:35;98446.33;;;33.30;74.20
35291;BME280;21411;50.024;19.220;2022-08-19T08:40:05;98444.89;;;33.43;73.34
35291;BME280;21411;50.024;19.220;2022-08-19T08:42:36;98448.27;;;33.56;73.02
35291;BME280;21411;50.024;19.220;2022-08-19T08:45:12;98440.66;;;33.53;71.96
35291;BME280;21411;50.024;19.220;2022-08-19T08:47:44;98439.90;;;33.54;71.99
35291;BME280;21411;50.024;19.220;2022-08-19T08:50:18;98441.70;;;33.55;71.99
35291;BME280;21411;50.024;19.220;2022-08-19T08:52:48;98438.59;;;33.55;71.24
35291;BME280;21411;50.024;19.220;2022-08-19T08:55:21;98435.98;;;33.54;70.93
35291;BME280;21411;50.024;19.220;2022-08-19T09:00:27;98430.23;;;33.55;69.89
35291;BME280;21411;50.024;19.220;2022-08-19T09:02:56;98426.48;;;33.56;69.35
35291;BME280;21411;50.024;19.220;2022-08-19T09:05:34;98427.06;;;33.59;69.35
35291;BME280;21411;50.024;19.220;2022-08-19T09:08:08;98429.86;;;33.73;69.02
35291;BME280;21411;50.024;19.220;2022-08-19T09:10:39;98430.37;;;33.85;68.86
35291;BME280;21411;50.024;19.220;2022-08-19T09:15:58;98419.20;;;34.25;69.96
35291;BME280;21411;50.024;19.220;2022-08-19T09:18:56;98426.38;;;34.38;68.79
35291;BME280;21411;50.024;19.220;2022-08-19T09:21:25;98427.23;;;34.38;67.51
35291;BME280;21411;50.024;19.220;2022-08-19T09:23:52;98427.62;;;34.33;66.56
35291;BME280;21411;50.024;19.220;2022-08-19T09:26:21;98428.64;;;34.25;66.48
35291;BME280;21411;50.024;19.220;2022-08-19T09:28:50;98428.69;;;34.22;66.87
35291;BME280;21411;50.024;19.220;2022-08-19T09:31:21;98437.23;;;34.14;67.02
35291;BME280;21411;50.024;19.220;2022-08-19T09:33:49;98438.70;;;34.07;67.54
35291;BME280;21411;50.024;19.220;2022-08-19T09:36:19;98438.66;;;34.04;67.91
35291;BME280;21411;50.024;19.220;2022-08-19T09:38:46;98434.54;;;33.99;68.08
35291;BME280;21411;50.024;19.220;2022-08-19T09:41:15;98435.25;;;33.98;68.36
35291;BME280;21411;50.024;19.220;2022-08-19T09:43:45;98432.16;;;33.99;68.44
35291;BME280;21411;50.024;19.220;2022-08-19T09:46:13;98436.05;;;34.03;67.95
35291;BME280;21411;50.024;19.220;2022-08-19T09:48:40;98432.50;;;34.09;67.70
35291;BME280;21411;50.024;19.220;2022-08-19T09:51:13;98428.45;;;34.17;67.49
35291;BME280;21411;50.024;19.220;2022-08-19T09:53:45;98429.77;;;34.30;66.95
35291;BME280;21411;50.024;19.220;2022-08-19T09:56:12;98427.20;;;34.38;66.30
35291;BME280;21411;50.024;19.220;2022-08-19T09:58:39;98430.93;;;34.45;66.07
35291;BME280;21411;50.024;19.220;2022-08-19T10:01:08;98430.35;;;34.54;66.55
35291;BME280;21411;50.024;19.220;2022-08-19T10:03:36;98429.86;;;34.70;66.21
35291;BME280;21411;50.024;19.220;2022-08-19T10:06:04;98424.34;;;34.85;65.03
35291;BME280;21411;50.024;19.220;2022-08-19T10:08:34;98423.60;;;35.20;65.10
35291;BME280;21411;50.024;19.220;2022-08-19T10:11:03;98421.94;;;35.54;64.75
35291;BME280;21411;50.024;19.220;2022-08-19T10:13:31;98416.98;;;35.71;62.73
35291;BME280;21411;50.024;19.220;2022-08-19T10:16:08;98412.24;;;35.77;61.85
35291;BME280;21411;50.024;19.220;2022-08-19T10:18:36;98415.35;;;35.79;60.73
35291;BME280;21411;50.024;19.220;2022-08-19T10:21:10;98420.54;;;35.71;58.71
35291;BME280;21411;50.024;19.220;2022-08-19T10:23:39;98421.21;;;35.67;58.18
35291;BME280;21411;50.024;19.220;2022-08-19T10:26:06;98422.42;;;35.60;57.88
35291;BME280;21411;50.024;19.220;2022-08-19T10:28:35;98429.75;;;35.47;57.79
35291;BME280;21411;50.024;19.220;2022-08-19T10:31:07;98434.42;;;35.22;57.56
35291;BME280;21411;50.024;19.220;2022-08-19T10:33:35;98431.25;;;35.09;58.48
35291;BME280;21411;50.024;19.220;2022-08-19T10:36:08;98431.00;;;34.98;58.71
35291;BME280;21411;50.024;19.220;2022-08-19T10:38:36;98422.90;;;34.82;58.84
35291;BME280;21411;50.024;19.220;2022-08-19T10:41:18;98422.89;;;34.72;59.41
35291;BME280;21411;50.024;19.220;2022-08-19T10:43:45;98418.56;;;34.71;59.66
35291;BME280;21411;50.024;19.220;2022-08-19T10:46:14;98416.69;;;34.75;59.81
35291;BME280;21411;50.024;19.220;2022-08-19T10:48:43;98415.30;;;34.73;59.52
35291;BME280;21411;50.024;19.220;2022-08-19T10:51:10;98413.70;;;34.71;59.25
35291;BME280;21411;50.024;19.220;2022-08-19T10:53:56;98409.77;;;34.74;59.67
35291;BME280;21411;50.024;19.220;2022-08-19T10:56:24;98408.94;;;34.74;59.73
35291;BME280;21411;50.024;19.220;2022-08-19T10:59:09;98405.84;;;34.77;59.87
35291;BME280;21411;50.024;19.220;2022-08-19T11:01:38;98394.60;;;34.87;59.76
35291;BME280;21411;50.024;19.220;2022-08-19T11:04:06;98389.34;;;34.91;59.45
35291;BME280;21411;50.024;19.220;2022-08-19T11:06:37;98385.02;;;34.91;58.93
35291;BME280;21411;50.024;19.220;2022-08-19T11:09:05;98383.76;;;34.91;58.48
35291;BME280;21411;50.024;19.220;2022-08-19T11:11:32;98387.42;;;34.87;58.30
35291;BME280;21411;50.024;19.220;2022-08-19T11:13:58;98384.14;;;34.82;57.08
35291;BME280;21411;50.024;19.220;2022-08-19T11:16:26;98381.27;;;34.86;57.70
35291;BME280;21411;50.024;19.220;2022-08-19T11:18:57;98380.44;;;34.95;58.04
35291;BME280;21411;50.024;19.220;2022-08-19T11:21:27;98381.72;;;35.05;57.88
35291;BME280;21411;50.024;19.220;2022-08-19T11:23:57;98381.02;;;35.17;57.28
35291;BME280;21411;50.024;19.220;2022-08-19T11:26:25;98375.64;;;35.26;57.09
35291;BME280;21411;50.024;19.220;2022-08-19T11:28:52;98374.18;;;35.33;57.07
35291;BME280;21411;50.024;19.220;2022-08-19T11:31:26;98374.99;;;35.43;57.37
35291;BME280;21411;50.024;19.220;2022-08-19T11:33:56;98376.86;;;35.52;56.76
35291;BME280;21411;50.024;19.220;2022-08-19T11:36:23;98377.98;;;35.63;56.31
35291;BME280;21411;50.024;19.220;2022-08-19T11:38:50;98378.95;;;35.73;54.75
35291;BME280;21411;50.024;19.220;2022-08-19T11:41:19;98381.91;;;35.79;53.45
35291;BME280;21411;50.024;19.220;2022-08-19T11:43:46;98377.71;;;35.77;52.09
35291;BME280;21411;50.024;19.220;2022-08-19T11:46:14;98377.73;;;35.68;50.16
35291;BME280;21411;50.024;19.220;2022-08-19T11:48:41;98377.97;;;35.62;49.89
35291;BME280;21411;50.024;19.220;2022-08-19T11:51:11;98379.73;;;35.68;50.02
35291;BME280;21411;50.024;19.220;2022-08-19T11:53:39;98377.36;;;35.78;49.23
35291;BME280;21411;50.024;19.220;2022-08-19T11:56:07;98379.09;;;35.93;48.46
35291;BME280;21411;50.024;19.220;2022-08-19T11:58:35;98376.33;;;36.09;48.19
35291;BME280;21411;50.024;19.220;2022-08-19T12:01:05;98374.42;;;36.24;47.85
35291;BME280;21411;50.024;19.220;2022-08-19T12:03:33;98379.16;;;36.33;46.86
35291;BME280;21411;50.024;19.220;2022-08-19T12:06:08;98377.10;;;36.31;46.70
35291;BME280;21411;50.024;19.220;2022-08-19T12:08:35;98373.67;;;36.41;46.92
35291;BME280;21411;50.024;19.220;2022-08-19T12:11:02;98367.83;;;36.33;46.20
35291;BME280;21411;50.024;19.220;2022-08-19T12:13:30;98367.04;;;36.13;46.16
35291;BME280;21411;50.024;19.220;2022-08-19T12:15:57;98368.77;;;35.96;45.89
35291;BME280;21411;50.024;19.220;2022-08-19T12:18:24;98370.31;;;35.81;45.76
35291;BME280;21411;50.024;19.220;2022-08-19T12:20:52;98367.80;;;35.66;45.07
35291;BME280;21411;50.024;19.220;2022-08-19T12:23:20;98365.95;;;35.58;45.57
35291;BME280;21411;50.024;19.220;2022-08-19T12:25:48;98359.98;;;35.70;45.98
35291;BME280;21411;50.024;19.220;2022-08-19T12:28:19;98356.70;;;35.90;46.61
35291;BME280;21411;50.024;19.220;2022-08-19T12:30:47;98354.02;;;36.04;45.58
35291;BME280;21411;50.024;19.220;2022-08-19T12:33:14;98354.70;;;36.08;45.61
35291;BME280;21411;50.024;19.220;2022-08-19T12:35:42;98351.86;;;36.13;45.18
35291;BME280;21411;50.024;19.220;2022-08-19T12:38:10;98352.07;;;36.15;45.51
35291;BME280;21411;50.024;19.220;2022-08-19T12:40:37;98348.40;;;36.25;45.77
35291;BME280;21411;50.024;19.220;2022-08-19T12:43:07;98346.08;;;36.32;45.15
35291;BME280;21411;50.024;19.220;2022-08-19T12:45:34;98340.58;;;36.41;45.67
35291;BME280;21411;50.024;19.220;2022-08-19T12:48:01;98339.91;;;36.49;45.60
35291;BME280;21411;50.024;19.220;2022-08-19T12:50:28;98336.59;;;36.49;45.21
35291;BME280;21411;50.024;19.220;2022-08-19T12:52:54;98336.35;;;36.52;45.21
35291;BME280;21411;50.024;19.220;2022-08-19T12:55:21;98335.77;;;36.41;42.60
35291;BME280;21411;50.024;19.220;2022-08-19T12:57:48;98336.80;;;36.25;42.36
35291;BME280;21411;50.024;19.220;2022-08-19T13:00:17;98333.44;;;36.11;42.57
35291;BME280;21411;50.024;19.220;2022-08-19T13:02:47;98328.33;;;35.95;42.03